Time;durP1;ratioP1;P1;durP2;ratioP2;P2;SDS_P1;SDS_P2;PMS_P1;PMS_P2;Temp;Humidity;BMP_temperature;BMP_pressure;BME280_temperature;BME280_humidity;BME280_pressure;Samples;Min_cycle;Max_cycle;Signal;HPM_P1;HPM_P2
2022/01/16 00:00:46;;;;;;;11.33;7.50;;;;;;;4.35;51.82;95494.78;5111100;28;20191;-78
2022/01/16 00:05:57;;;;;;;9.87;6.87;;;;;;;4.36;52.24;95486.31;5111024;28;20637;-78
2022/01/16 00:08:24;;;;;;;10.13;7.17;;;;;;;4.40;52.38;95489.47;5111141;28;20572;-79
2022/01/16 00:10:51;;;;;;;11.67;8.17;;;;;;;4.39;52.61;95480.25;5111443;28;20572;-78
2022/01/16 00:13:18;;;;;;;11.33;7.00;;;;;;;4.25;52.90;95479.25;5110911;28;20188;-78
2022/01/16 00:15:46;;;;;;;13.40;7.77;;;;;;;4.30;53.09;95489.13;5111152;28;20177;-77
2022/01/16 00:18:21;;;;;;;12.27;7.13;;;;;;;4.37;53.29;95513.25;5110837;28;20203;-77
2022/01/16 00:20:49;;;;;;;9.87;7.23;;;;;;;4.30;53.29;95522.06;5111092;28;20242;-78
2022/01/16 00:23:23;;;;;;;11.93;6.60;;;;;;;3.81;53.72;95461.31;5110279;28;20204;-81
2022/01/16 00:25:52;;;;;;;11.60;7.07;;;;;;;4.38;53.78;95572.31;5111241;28;20724;-81
2022/01/16 00:28:21;;;;;;;11.77;7.10;;;;;;;4.38;53.79;95579.91;5110627;28;20188;-80
2022/01/16 00:30:51;;;;;;;9.40;6.80;;;;;;;4.35;54.16;95618.03;5076181;28;20256;-78
2022/01/16 00:33:18;;;;;;;9.63;7.10;;;;;;;4.38;54.27;95608.56;5110515;28;20621;-78
2022/01/16 00:35:46;;;;;;;11.37;7.30;;;;;;;4.24;54.30;95480.16;5111205;28;20634;-78
2022/01/16 00:38:14;;;;;;;11.13;8.03;;;;;;;4.27;54.55;95472.41;5110582;28;20184;-77
2022/01/16 00:40:41;;;;;;;9.67;7.20;;;;;;;3.94;54.61;95494.38;5110905;28;20192;-78
2022/01/16 00:43:08;;;;;;;9.27;7.40;;;;;;;4.36;54.89;95477.88;5110561;28;20189;-77
2022/01/16 00:45:35;;;;;;;10.57;7.50;;;;;;;4.36;55.17;95404.44;5110974;28;20176;-78
2022/01/16 00:48:05;;;;;;;11.80;8.07;;;;;;;4.35;55.10;95471.97;5110606;28;20184;-78
2022/01/16 00:50:32;;;;;;;12.07;8.43;;;;;;;4.33;55.21;95402.91;5110807;28;20580;-78
2022/01/16 00:53:00;;;;;;;10.10;7.13;;;;;;;4.33;55.26;95357.31;5110861;28;20193;-77
2022/01/16 00:55:27;;;;;;;13.50;7.97;;;;;;;4.32;55.56;95391.16;5110388;28;20272;-78
2022/01/16 00:57:54;;;;;;;11.43;7.83;;;;;;;4.26;55.47;95366.94;5111097;28;20684;-78
2022/01/16 01:00:22;;;;;;;10.90;7.87;;;;;;;4.31;55.85;95396.28;5110566;28;20196;-79
2022/01/16 01:02:48;;;;;;;9.93;7.47;;;;;;;4.31;55.73;95439.31;5098550;28;20218;-77
2022/01/16 01:05:17;;;;;;;9.33;7.33;;;;;;;4.31;56.00;95472.22;5090392;28;20178;-78
2022/01/16 01:07:43;;;;;;;11.67;7.17;;;;;;;4.34;56.00;95454.34;5090800;28;20189;-77
2022/01/16 01:10:11;;;;;;;11.00;7.50;;;;;;;4.19;56.14;95415.50;5090778;28;20584;-79
2022/01/16 01:12:52;;;;;;;10.50;6.97;;;;;;;4.32;56.05;95473.84;5090705;28;20197;-78
2022/01/16 01:15:21;;;;;;;7.10;6.40;;;;;;;4.33;56.21;95483.09;5090411;28;20209;-78
2022/01/16 01:17:49;;;;;;;9.77;7.00;;;;;;;4.31;56.30;95445.19;5092148;28;20185;-78
2022/01/16 01:20:19;;;;;;;10.33;7.07;;;;;;;4.20;56.42;95442.44;5093443;28;20193;-79
2022/01/16 01:22:48;;;;;;;9.00;6.80;;;;;;;4.30;56.43;95450.34;5093814;28;20225;-77
2022/01/16 01:25:16;;;;;;;8.83;6.27;;;;;;;4.31;56.87;95444.38;5093541;28;20641;-78
2022/01/16 01:27:44;;;;;;;7.63;5.90;;;;;;;4.28;56.65;95458.84;5093804;28;20217;-78
2022/01/16 01:30:13;;;;;;;8.87;7.10;;;;;;;4.09;56.97;95435.38;5094104;28;20240;-78
2022/01/16 01:32:41;;;;;;;11.20;6.97;;;;;;;4.19;56.63;95430.66;5093923;28;20969;-79
2022/01/16 01:35:10;;;;;;;8.30;6.80;;;;;;;4.30;56.56;95450.34;5093337;28;20194;-79
2022/01/16 01:37:38;;;;;;;8.63;6.73;;;;;;;4.24;56.66;95459.91;5094010;28;20197;-78
2022/01/16 01:40:08;;;;;;;8.03;6.23;;;;;;;4.29;56.61;95464.72;5093317;28;20670;-79
2022/01/16 01:42:45;;;;;;;8.47;6.37;;;;;;;4.10;56.59;95453.91;5093213;28;20582;-77
2022/01/16 01:53:28;;;;;;;8.20;6.43;;;;;;;4.26;56.73;95505.38;5093467;28;20270;-78
2022/01/16 01:55:55;;;;;;;7.67;5.80;;;;;;;4.27;56.64;95489.28;5093600;28;20194;-78
2022/01/16 01:58:22;;;;;;;8.77;6.50;;;;;;;4.27;56.88;95514.59;5093071;28;20728;-80
2022/01/16 02:00:49;;;;;;;8.70;6.20;;;;;;;4.25;56.83;95512.16;5092854;28;20186;-77
2022/01/16 02:03:21;;;;;;;9.60;6.63;;;;;;;4.03;56.86;95461.84;5092823;28;20221;-79
2022/01/16 02:05:48;;;;;;;8.50;6.70;;;;;;;4.25;57.05;95494.44;5092871;28;20182;-77
2022/01/16 02:08:15;;;;;;;9.07;6.13;;;;;;;4.26;57.12;95493.53;5092809;28;20186;-78
2022/01/16 02:10:43;;;;;;;8.23;5.73;;;;;;;4.26;57.21;95510.44;5093436;28;20193;-78
2022/01/16 02:13:20;;;;;;;8.07;6.23;;;;;;;4.25;57.21;95519.75;5093236;28;20220;-79
2022/01/16 02:35:06;;;;;;;8.13;6.90;;;;;;;4.25;58.04;95503.75;5092454;28;20670;-80
2022/01/16 02:37:33;;;;;;;9.13;6.90;;;;;;;4.23;58.40;95503.00;5092408;28;20591;-79
2022/01/16 02:40:11;;;;;;;9.83;8.03;;;;;;;4.09;58.52;95482.66;5092631;28;20186;-79
2022/01/16 02:42:41;;;;;;;12.13;7.20;;;;;;;4.21;58.54;95500.56;5092108;28;20781;-79
2022/01/16 02:45:16;;;;;;;9.80;7.57;;;;;;;3.77;58.67;95434.53;5092186;28;20223;-80
2022/01/16 02:47:45;;;;;;;9.97;7.83;;;;;;;4.18;58.87;95502.44;5092017;28;20193;-78
2022/01/16 02:50:12;;;;;;;9.77;7.53;;;;;;;4.18;58.87;95498.19;5092496;28;20211;-75
2022/01/16 02:52:39;;;;;;;11.77;7.80;;;;;;;4.20;59.18;95498.13;5092649;28;20178;-77
2022/01/16 02:55:09;;;;;;;9.50;7.83;;;;;;;4.20;59.34;95498.13;5092315;28;20689;-78
2022/01/16 02:57:36;;;;;;;11.50;7.77;;;;;;;4.15;59.64;95475.56;5091887;28;20221;-78
2022/01/16 03:00:04;;;;;;;10.67;7.13;;;;;;;4.27;59.68;95487.59;5091789;28;20229;-80
2022/01/16 03:02:32;;;;;;;10.73;7.37;;;;;;;4.23;60.26;95482.75;5091609;28;20217;-79
2022/01/16 03:05:00;;;;;;;8.10;7.07;;;;;;;4.34;60.03;95482.19;5092234;28;20590;-80
2022/01/16 03:07:27;;;;;;;8.93;7.30;;;;;;;4.36;60.15;95486.31;5091672;28;20562;-78
2022/01/16 03:10:13;;;;;;;9.27;7.67;;;;;;;3.63;60.21;95371.19;5092444;28;20197;-77
2022/01/16 03:12:41;;;;;;;9.50;7.23;;;;;;;4.43;60.22;95477.47;5091379;28;20193;-77
2022/01/16 03:15:10;;;;;;;11.83;8.50;;;;;;;4.38;59.98;95471.03;5091293;28;20189;-77
2022/01/16 03:17:50;;;;;;;13.47;8.37;;;;;;;4.36;60.34;95455.06;5091297;28;20197;-78
2022/01/16 03:23:02;;;;;;;12.47;8.03;;;;;;;4.51;60.15;95480.41;5092134;28;20335;-77
2022/01/16 03:25:30;;;;;;;13.20;7.77;;;;;;;4.53;60.04;95483.69;5091616;28;20930;-78
2022/01/16 03:27:58;;;;;;;10.23;7.63;;;;;;;4.57;60.09;95483.50;5093096;28;20193;-79
2022/01/16 03:30:25;;;;;;;13.63;8.07;;;;;;;4.57;60.07;95489.38;5104790;28;20186;-77
2022/01/16 03:32:52;;;;;;;12.17;8.40;;;;;;;4.51;60.13;95467.75;5105636;28;20178;-77
2022/01/16 03:35:19;;;;;;;9.87;7.70;;;;;;;4.40;60.08;95447.22;5092383;28;20186;-78
2022/01/16 03:37:46;;;;;;;11.13;8.20;;;;;;;4.53;59.97;95472.72;5091190;28;20197;-78
2022/01/16 03:40:13;;;;;;;10.77;8.27;;;;;;;4.62;59.95;95486.59;5090894;28;20193;-78
2022/01/16 03:42:41;;;;;;;11.07;8.53;;;;;;;4.68;59.81;95497.25;5090783;28;20214;-79
2022/01/16 03:45:10;;;;;;;10.27;7.93;;;;;;;4.59;59.67;95485.06;5091284;28;20255;-80
2022/01/16 03:47:37;;;;;;;11.23;8.80;;;;;;;4.68;59.71;95509.91;5091340;28;20562;-78
2022/01/16 03:50:06;;;;;;;9.57;8.17;;;;;;;4.70;59.73;95504.75;5091586;28;20213;-79
2022/01/16 03:52:34;;;;;;;10.00;7.80;;;;;;;4.69;59.60;95503.94;5090483;28;20189;-77
2022/01/16 03:55:02;;;;;;;12.73;8.63;;;;;;;4.71;59.53;95504.69;5090024;28;20610;-79
2022/01/16 03:57:29;;;;;;;10.43;7.27;;;;;;;4.72;59.53;95506.31;5089306;28;20205;-78
2022/01/16 03:59:56;;;;;;;11.43;8.53;;;;;;;4.71;59.40;95499.63;5091628;28;20220;-77
2022/01/16 04:02:25;;;;;;;10.77;7.73;;;;;;;4.72;59.45;95501.25;5090778;28;20260;-78
2022/01/16 04:04:51;;;;;;;11.30;8.23;;;;;;;4.71;59.53;95501.34;5090935;28;20193;-78
2022/01/16 04:07:25;;;;;;;11.27;8.13;;;;;;;4.64;59.47;95498.31;5090460;28;20655;-78
2022/01/16 04:09:52;;;;;;;11.43;8.20;;;;;;;4.65;59.65;95505.00;5090741;28;20186;-78
2022/01/16 04:12:22;;;;;;;9.80;8.23;;;;;;;4.64;59.58;95508.44;5090711;28;20204;-78
2022/01/16 04:17:34;;;;;;;11.83;8.37;;;;;;;4.54;59.71;95504.78;5090341;28;20209;-79
2022/01/16 04:20:01;;;;;;;9.33;7.53;;;;;;;4.58;59.52;95518.91;5090484;28;20704;-77
2022/01/16 04:22:28;;;;;;;11.17;8.10;;;;;;;4.56;59.78;95517.34;5090700;28;20227;-77
2022/01/16 04:24:55;;;;;;;10.70;8.10;;;;;;;4.39;59.77;95501.31;5090828;28;20300;-79
2022/01/16 04:27:21;;;;;;;10.80;8.23;;;;;;;4.36;59.73;95504.03;5090657;28;20194;-79
2022/01/16 04:29:48;;;;;;;8.57;7.63;;;;;;;4.49;59.80;95524.44;5090549;28;20193;-78
2022/01/16 04:32:16;;;;;;;9.50;7.80;;;;;;;4.33;59.89;95518.56;5089112;28;20240;-78
2022/01/16 04:34:47;;;;;;;10.50;7.80;;;;;;;4.39;59.98;95531.69;5090777;28;20201;-77
2022/01/16 04:37:14;;;;;;;10.07;7.70;;;;;;;4.36;59.78;95528.50;5091077;28;20681;-80
2022/01/16 04:39:48;;;;;;;10.20;7.47;;;;;;;4.31;59.95;95520.34;5090377;28;20190;-80
2022/01/16 04:45:00;;;;;;;10.40;7.90;;;;;;;4.37;59.95;95527.63;5090574;28;20197;-78
2022/01/16 04:47:27;;;;;;;10.90;8.77;;;;;;;4.41;59.70;95540.06;5090899;28;20197;-78
2022/01/16 04:49:55;;;;;;;10.03;7.90;;;;;;;4.42;59.85;95546.75;5090685;28;20613;-78
2022/01/16 04:52:22;;;;;;;10.87;8.53;;;;;;;4.44;59.56;95539.88;5092622;28;20197;-78
2022/01/16 04:54:49;;;;;;;13.97;8.60;;;;;;;4.46;59.73;95530.50;5094626;28;20197;-78
2022/01/16 04:57:16;;;;;;;11.27;7.97;;;;;;;4.49;59.61;95529.50;5080593;28;20197;-78
2022/01/16 04:59:43;;;;;;;11.60;8.23;;;;;;;4.21;59.52;95484.56;5096132;28;20205;-76
2022/01/16 05:02:10;;;;;;;10.13;8.20;;;;;;;4.52;59.51;95534.41;5097341;28;20186;-77
2022/01/16 05:04:37;;;;;;;10.10;7.60;;;;;;;4.54;59.43;95535.16;5094286;28;20189;-78
2022/01/16 05:07:07;;;;;;;11.87;8.83;;;;;;;4.55;59.45;95531.72;5094290;28;20288;-78
2022/01/16 05:09:34;;;;;;;8.53;7.57;;;;;;;4.59;59.32;95532.38;5093686;28;20194;-77
2022/01/16 05:12:07;;;;;;;9.93;7.77;;;;;;;4.53;59.28;95514.09;5094141;28;20194;-78
2022/01/16 05:17:18;;;;;;;12.40;9.13;;;;;;;4.62;59.19;95511.94;5093832;28;20177;-76
2022/01/16 05:19:45;;;;;;;12.57;8.23;;;;;;;4.63;59.16;95519.47;5094211;28;20182;-77
2022/01/16 05:22:13;;;;;;;11.77;8.47;;;;;;;4.61;59.12;95516.19;5094287;28;20217;-79
2022/01/16 05:24:43;;;;;;;9.37;7.40;;;;;;;4.69;58.93;95526.75;5093359;28;20229;-78
2022/01/16 05:27:12;;;;;;;13.40;8.93;;;;;;;4.70;58.65;95525.03;5092225;28;20555;-77
2022/01/16 05:29:40;;;;;;;9.13;7.63;;;;;;;4.72;58.77;95533.38;5093588;28;20193;-78
2022/01/16 05:32:08;;;;;;;11.77;8.47;;;;;;;4.74;58.59;95527.31;5094641;28;20194;-80
2022/01/16 05:34:35;;;;;;;10.67;8.23;;;;;;;4.75;58.61;95523.91;5093336;28;20189;-78
2022/01/16 05:37:02;;;;;;;11.67;8.30;;;;;;;4.45;58.48;95478.22;5093967;28;20251;-79
2022/01/16 05:39:32;;;;;;;11.93;8.20;;;;;;;4.71;58.45;95519.91;5093526;28;20196;-79
2022/01/16 05:41:59;;;;;;;10.63;7.87;;;;;;;4.83;58.30;95531.06;5093612;28;20236;-77
2022/01/16 05:44:26;;;;;;;11.23;8.70;;;;;;;4.70;58.44;95509.81;5093521;28;20694;-79
2022/01/16 05:46:52;;;;;;;11.37;7.70;;;;;;;4.86;58.02;95535.97;5093588;28;20208;-78
2022/01/16 05:49:19;;;;;;;13.63;9.00;;;;;;;4.88;58.17;95536.72;5093450;28;20208;-79
2022/01/16 05:51:46;;;;;;;11.53;8.90;;;;;;;4.90;57.95;95539.16;5093344;28;20576;-79
2022/01/16 05:54:13;;;;;;;12.57;9.13;;;;;;;4.73;57.71;95513.00;5093436;28;20563;-81
2022/01/16 05:56:41;;;;;;;13.37;9.50;;;;;;;4.94;57.82;95543.19;5093117;28;20530;-79
2022/01/16 05:59:08;;;;;;;15.20;9.50;;;;;;;4.95;57.83;95547.34;5092267;28;20194;-77
2022/01/16 06:01:37;;;;;;;12.60;8.90;;;;;;;4.95;57.60;95553.22;5093408;28;20787;-78
2022/01/16 06:04:04;;;;;;;12.30;8.70;;;;;;;4.90;57.64;95531.56;5090732;28;20279;-80
2022/01/16 06:06:33;;;;;;;13.37;8.80;;;;;;;4.90;57.58;95534.91;5093070;28;20185;-77
2022/01/16 06:09:00;;;;;;;11.90;8.27;;;;;;;4.99;57.31;95552.16;5093821;28;20182;-79
2022/01/16 06:11:27;;;;;;;8.67;7.77;;;;;;;5.00;56.73;95548.72;5092432;28;20189;-78
2022/01/16 06:13:55;;;;;;;14.33;9.17;;;;;;;5.02;56.46;95546.13;5093530;28;20189;-79
2022/01/16 06:16:22;;;;;;;11.33;8.60;;;;;;;5.03;56.16;95550.28;5092483;28;20691;-77
2022/01/16 06:18:49;;;;;;;12.70;7.87;;;;;;;5.03;55.77;95557.88;5093348;28;20195;-79
2022/01/16 06:21:16;;;;;;;11.03;7.40;;;;;;;4.82;55.59;95518.50;5092447;28;20208;-79
2022/01/16 06:23:43;;;;;;;10.27;7.63;;;;;;;5.07;55.33;95550.94;5091420;28;20216;-78
2022/01/16 06:26:10;;;;;;;10.27;7.37;;;;;;;5.08;55.02;95555.09;5092445;28;20226;-79
2022/01/16 06:28:37;;;;;;;10.10;7.07;;;;;;;5.09;54.67;95560.06;5092781;28;20500;-78
2022/01/16 06:31:05;;;;;;;9.10;6.57;;;;;;;5.11;54.47;95565.91;5092768;28;20204;-78
2022/01/16 06:33:32;;;;;;;9.70;6.20;;;;;;;5.04;54.13;95560.34;5092634;28;20182;-78
2022/01/16 06:35:58;;;;;;;11.90;7.27;;;;;;;5.14;53.90;95575.88;5092355;28;20209;-78
2022/01/16 06:38:25;;;;;;;7.30;5.70;;;;;;;5.17;53.86;95578.22;5092149;28;20254;-77
2022/01/16 06:40:52;;;;;;;10.57;7.17;;;;;;;5.19;53.68;95586.59;5092697;28;20186;-77
2022/01/16 06:43:19;;;;;;;8.60;5.97;;;;;;;5.23;53.42;95590.59;5092003;28;20206;-79
2022/01/16 06:45:46;;;;;;;12.83;6.77;;;;;;;5.27;53.41;95587.00;5092076;28;20197;-78
2022/01/16 06:48:14;;;;;;;8.60;6.70;;;;;;;5.32;53.22;95581.66;5091762;28;20190;-79
2022/01/16 06:50:41;;;;;;;8.70;6.07;;;;;;;5.36;53.12;95573.00;5092757;28;20193;-78
2022/01/16 06:53:08;;;;;;;10.07;6.93;;;;;;;5.42;52.97;95575.19;5091674;28;20280;-79
2022/01/16 06:55:35;;;;;;;9.77;7.17;;;;;;;5.47;52.86;95572.38;5092107;28;20662;-80
2022/01/16 06:58:06;;;;;;;9.70;7.33;;;;;;;5.53;52.87;95584.75;5090405;28;20202;-79
2022/01/16 07:00:33;;;;;;;9.77;7.03;;;;;;;5.60;52.75;95588.56;5124951;27;20189;-80
2022/01/16 07:03:02;;;;;;;11.63;7.17;;;;;;;5.66;52.70;95588.25;5091645;28;20247;-77
2022/01/16 07:05:30;;;;;;;10.00;6.97;;;;;;;5.75;52.67;95591.97;5090340;28;20190;-77
2022/01/16 07:07:57;;;;;;;11.77;8.57;;;;;;;5.83;52.59;95601.69;5091614;28;20193;-79
2022/01/16 07:10:24;;;;;;;9.50;7.00;;;;;;;5.93;52.40;95606.19;5091727;28;20190;-78
2022/01/16 07:12:51;;;;;;;9.57;7.60;;;;;;;6.05;52.38;95607.22;5091369;28;20232;-79
2022/01/16 07:15:17;;;;;;;11.07;7.73;;;;;;;6.22;51.96;95602.00;5090459;28;20201;-79
2022/01/16 07:17:44;;;;;;;10.17;6.97;;;;;;;6.51;51.94;95607.06;5091900;28;20201;-81
2022/01/16 07:20:14;;;;;;;12.50;8.97;;;;;;;6.94;51.78;95600.25;5091134;28;20639;-77
2022/01/16 07:22:42;;;;;;;10.67;7.80;;;;;;;7.38;51.90;95596.69;5091180;28;20277;-78
2022/01/16 07:25:10;;;;;;;12.33;8.27;;;;;;;8.05;51.96;95609.41;5091145;28;20229;-79
2022/01/16 07:27:37;;;;;;;9.23;7.67;;;;;;;8.58;51.94;95597.41;5091394;28;20192;-77
2022/01/16 07:30:04;;;;;;;9.40;6.50;;;;;;;9.19;51.55;95600.06;5091631;28;20186;-77
2022/01/16 07:32:31;;;;;;;12.07;7.77;;;;;;;9.75;51.13;95603.72;5090868;28;20255;-76
2022/01/16 07:34:58;;;;;;;8.30;7.10;;;;;;;10.25;50.61;95595.88;5091219;28;20201;-78
2022/01/16 07:37:25;;;;;;;11.07;7.47;;;;;;;10.86;49.72;95616.06;5091253;28;20193;-75
2022/01/16 07:39:53;;;;;;;13.07;7.93;;;;;;;11.39;49.15;95614.47;5094896;28;20189;-77
2022/01/16 07:42:20;;;;;;;10.67;7.47;;;;;;;11.88;48.56;95613.22;5103050;28;20193;-76
2022/01/16 07:44:47;;;;;;;8.67;6.63;;;;;;;12.35;47.87;95616.25;5098527;28;20213;-77
2022/01/16 07:47:14;;;;;;;11.17;8.43;;;;;;;12.81;47.07;95625.25;5090968;28;20192;-76
2022/01/16 07:49:41;;;;;;;11.10;8.47;;;;;;;13.23;46.70;95620.03;5091027;28;20186;-75
2022/01/16 07:52:08;;;;;;;11.77;8.23;;;;;;;13.61;45.72;95616.75;5090552;28;20201;-78
2022/01/16 07:54:35;;;;;;;11.73;7.70;;;;;;;13.80;45.07;95596.16;5090952;28;20186;-77
2022/01/16 07:57:04;;;;;;;9.70;8.70;;;;;;;14.30;43.98;95631.22;5090546;28;20658;-76
2022/01/16 07:59:31;;;;;;;10.63;8.00;;;;;;;14.30;43.44;95605.50;5092300;28;20198;-77
2022/01/16 08:01:58;;;;;;;13.07;7.97;;;;;;;14.42;42.94;95624.97;5090040;28;20201;-74
2022/01/16 08:04:25;;;;;;;9.43;7.10;;;;;;;14.35;42.34;95625.66;5090698;28;20225;-80
2022/01/16 08:06:51;;;;;;;8.20;7.17;;;;;;;14.19;42.29;95623.66;5090792;28;20189;-77
2022/01/16 08:09:18;;;;;;;9.70;6.67;;;;;;;14.03;42.00;95627.59;5090605;28;20200;-75
2022/01/16 08:11:45;;;;;;;6.83;6.13;;;;;;;14.09;41.33;95617.69;5089625;28;20642;-75
2022/01/16 08:14:13;;;;;;;7.90;6.67;;;;;;;14.23;40.63;95615.50;5090348;28;20197;-75
2022/01/16 08:16:40;;;;;;;8.00;6.63;;;;;;;14.41;39.99;95623.34;5089872;28;20197;-75
2022/01/16 08:19:07;;;;;;;6.37;5.70;;;;;;;14.47;39.72;95625.38;5089799;28;20189;-74
2022/01/16 08:21:34;;;;;;;8.77;6.23;;;;;;;14.32;39.58;95629.31;5091598;28;20250;-78
2022/01/16 08:24:03;;;;;;;8.60;6.60;;;;;;;14.16;39.79;95626.47;5093159;28;20245;-76
2022/01/16 08:26:30;;;;;;;6.33;5.70;;;;;;;14.07;39.61;95628.09;5093287;28;20360;-77
2022/01/16 08:28:57;;;;;;;6.97;6.13;;;;;;;13.92;39.62;95612.28;5092509;28;20197;-79
2022/01/16 08:31:26;;;;;;;7.47;6.37;;;;;;;13.74;39.77;95619.06;5091667;28;20582;-75
2022/01/16 08:33:52;;;;;;;8.67;7.03;;;;;;;13.46;40.24;95608.59;5092024;28;20196;-76
2022/01/16 08:36:21;;;;;;;10.97;6.90;;;;;;;13.64;39.76;95620.78;5091068;28;20193;-73
2022/01/16 08:38:48;;;;;;;8.60;7.13;;;;;;;13.83;39.62;95612.28;5090756;28;20194;-77
2022/01/16 08:41:15;;;;;;;8.23;5.20;;;;;;;14.20;59.76;95617.53;5093002;28;20181;-76
2022/01/16 08:43:42;;;;;;;8.27;4.80;;;;;;;14.49;59.11;95576.34;5107176;28;20200;-76
2022/01/16 08:46:08;;;;;;;7.93;6.20;;;;;;;15.20;56.40;95611.88;5107805;28;20208;-77
2022/01/16 08:48:37;;;;;;;9.37;6.60;;;;;;;15.32;52.95;95614.09;5106888;28;20204;-76
2022/01/16 08:51:04;;;;;;;8.07;7.00;;;;;;;15.20;50.60;95622.19;5108273;28;20226;-77
2022/01/16 08:53:30;;;;;;;10.20;7.83;;;;;;;14.95;48.58;95613.34;5108129;28;20192;-77
2022/01/16 08:55:58;;;;;;;12.93;7.60;;;;;;;14.64;47.05;95603.28;5107860;28;20704;-77
2022/01/16 08:58:25;;;;;;;10.67;8.10;;;;;;;14.38;45.86;95607.34;5108188;28;20230;-76
2022/01/16 09:00:52;;;;;;;9.83;8.10;;;;;;;14.15;45.06;95612.00;5107694;28;20192;-74
2022/01/16 09:03:19;;;;;;;9.57;7.80;;;;;;;13.89;44.52;95604.03;5107935;28;20192;-78
2022/01/16 09:05:48;;;;;;;12.93;8.47;;;;;;;13.61;44.13;95600.50;5107508;28;20185;-75
2022/01/16 09:08:15;;;;;;;18.13;8.83;;;;;;;13.36;43.74;95600.06;5107917;28;20193;-77
2022/01/16 09:10:42;;;;;;;10.60;8.50;;;;;;;13.13;43.53;95604.56;5107900;28;20185;-76
2022/01/16 09:13:11;;;;;;;12.10;10.10;;;;;;;12.92;43.21;95601.25;5107861;28;20185;-79
2022/01/16 09:15:38;;;;;;;13.93;9.77;;;;;;;12.70;43.30;95597.13;5107630;28;20283;-74
2022/01/16 09:18:05;;;;;;;11.07;8.90;;;;;;;12.37;43.36;95570.75;5107275;28;20193;-76
2022/01/16 09:20:32;;;;;;;10.53;9.17;;;;;;;12.34;42.97;95591.50;5107204;28;20199;-77
2022/01/16 09:23:00;;;;;;;12.47;8.80;;;;;;;12.13;43.29;95586.38;5107924;28;20188;-74
2022/01/16 09:25:28;;;;;;;18.50;9.83;;;;;;;11.66;43.08;95532.09;5107385;28;20760;-77
2022/01/16 09:27:55;;;;;;;13.17;9.10;;;;;;;11.85;43.31;95566.50;5107451;28;20189;-76
2022/01/16 09:30:23;;;;;;;14.60;8.70;;;;;;;11.79;43.28;95578.84;5107672;28;20189;-77
2022/01/16 09:32:50;;;;;;;13.33;9.33;;;;;;;11.67;43.40;95577.25;5107514;28;20189;-75
2022/01/16 09:35:17;;;;;;;13.73;10.07;;;;;;;11.54;43.45;95572.28;5107867;28;20185;-75
2022/01/16 09:37:45;;;;;;;12.97;9.60;;;;;;;11.45;44.85;95570.47;5107698;28;20204;-77
2022/01/16 09:40:16;;;;;;;13.13;10.00;;;;;;;11.35;46.35;95571.28;5111344;28;20177;-76
2022/01/16 09:42:44;;;;;;;12.13;10.00;;;;;;;11.24;46.54;95562.72;5110990;28;20632;-75
2022/01/16 09:45:13;;;;;;;14.27;10.37;;;;;;;11.16;46.88;95559.94;5110534;28;20224;-76
2022/01/16 09:47:40;;;;;;;12.57;9.53;;;;;;;11.14;47.05;95563.53;5111187;28;20621;-76
2022/01/16 09:50:08;;;;;;;15.03;9.77;;;;;;;11.07;47.25;95557.28;5111141;28;20185;-75
2022/01/16 09:52:37;;;;;;;11.00;9.03;;;;;;;10.97;47.52;95546.97;5110477;28;20197;-76
2022/01/16 09:55:04;;;;;;;12.17;9.97;;;;;;;10.93;47.33;95543.81;5113180;27;20189;-76
2022/01/16 09:57:33;;;;;;;12.00;9.57;;;;;;;10.91;47.40;95548.22;5113036;28;20193;-74
2022/01/16 10:00:00;;;;;;;13.60;10.03;;;;;;;10.86;47.32;95544.41;5112701;28;20600;-76
2022/01/16 10:02:27;;;;;;;14.87;9.73;;;;;;;10.82;47.19;95548.13;5113146;28;20189;-75
2022/01/16 10:04:54;;;;;;;11.83;8.87;;;;;;;10.79;47.48;95542.34;5112934;28;20217;-74
2022/01/16 10:07:21;;;;;;;13.77;9.67;;;;;;;10.75;47.35;95533.25;5112597;28;20219;-76
2022/01/16 10:10:06;;;;;;;11.30;8.70;;;;;;;10.72;47.90;95527.56;5112983;28;20185;-75
2022/01/16 10:12:35;;;;;;;16.00;10.13;;;;;;;10.69;47.90;95527.78;5113147;28;20234;-76
2022/01/16 10:15:17;;;;;;;11.87;9.47;;;;;;;10.65;47.60;95529.75;5112806;28;20192;-75
2022/01/16 10:17:45;;;;;;;12.00;9.17;;;;;;;10.65;47.26;95523.84;5090852;28;20231;-77
2022/01/16 10:20:12;;;;;;;15.57;10.53;;;;;;;10.62;47.63;95526.63;5092465;28;20221;-75
2022/01/16 10:22:40;;;;;;;13.10;10.23;;;;;;;10.61;47.83;95517.34;5092302;28;20194;-75
2022/01/16 10:25:08;;;;;;;12.43;9.83;;;;;;;10.60;47.95;95526.75;5092136;28;20712;-75
2022/01/16 10:27:38;;;;;;;14.10;9.43;;;;;;;10.59;48.04;95511.53;5091956;28;20193;-75
2022/01/16 10:30:08;;;;;;;12.80;9.90;;;;;;;10.59;47.67;95511.53;5091066;28;20194;-77
2022/01/16 10:32:38;;;;;;;10.57;8.83;;;;;;;10.59;47.54;95509.78;5091384;28;20709;-74
2022/01/16 10:35:14;;;;;;;11.27;8.60;;;;;;;10.60;48.04;95501.19;5090842;28;20190;-76
2022/01/16 10:37:43;;;;;;;12.10;9.63;;;;;;;10.62;48.30;95493.38;5091877;28;20611;-75
2022/01/16 10:40:14;;;;;;;13.63;9.93;;;;;;;10.64;48.25;95492.34;5091917;28;20185;-75
2022/01/16 10:42:48;;;;;;;11.70;9.50;;;;;;;10.64;47.78;95476.19;5090104;28;20190;-76
2022/01/16 10:45:17;;;;;;;13.30;9.97;;;;;;;10.70;47.70;95485.91;5092290;28;20593;-76
2022/01/16 10:47:47;;;;;;;10.33;9.10;;;;;;;10.77;47.32;95492.19;5092048;28;20189;-75
2022/01/16 10:50:17;;;;;;;13.40;10.43;;;;;;;10.79;47.72;95492.88;5091502;28;20190;-75
2022/01/16 10:52:57;;;;;;;18.30;11.07;;;;;;;10.80;47.48;95494.53;5091768;28;20181;-75
2022/01/16 10:55:33;;;;;;;13.67;9.67;;;;;;;10.80;47.40;95485.09;5092200;28;20193;-77
2022/01/16 10:58:08;;;;;;;12.80;10.07;;;;;;;10.82;47.76;95479.84;5091863;28;20727;-75
2022/01/16 11:00:36;;;;;;;12.73;9.63;;;;;;;10.80;47.86;95467.19;5092729;28;20272;-75
2022/01/16 11:03:05;;;;;;;12.57;9.70;;;;;;;10.83;48.13;95468.69;5093818;28;20189;-75
2022/01/16 11:05:37;;;;;;;13.17;10.13;;;;;;;10.84;47.85;95466.94;5093312;28;20604;-76
2022/01/16 11:08:05;;;;;;;15.23;10.33;;;;;;;10.85;47.51;95469.41;5092123;28;20186;-75
2022/01/16 11:10:34;;;;;;;15.50;10.17;;;;;;;10.86;47.36;95463.34;5091758;28;20185;-75
2022/01/16 11:13:04;;;;;;;12.03;9.50;;;;;;;10.87;47.61;95464.16;5092774;28;20182;-76
2022/01/16 11:15:33;;;;;;;11.83;9.20;;;;;;;10.78;47.97;95450.31;5091993;28;20193;-75
2022/01/16 11:18:01;;;;;;;11.83;9.50;;;;;;;10.89;47.37;95463.09;5091733;28;20190;-76
2022/01/16 11:20:33;;;;;;;13.40;10.20;;;;;;;10.90;47.33;95467.28;5091390;28;20185;-77
2022/01/16 11:23:13;;;;;;;12.43;9.80;;;;;;;10.91;47.22;95463.78;5091366;28;20198;-75
2022/01/16 11:25:41;;;;;;;12.87;10.17;;;;;;;10.75;47.12;95428.38;5091047;28;20236;-78
2022/01/16 11:28:11;;;;;;;13.77;10.50;;;;;;;10.90;47.06;95443.44;5090808;28;20185;-77
2022/01/16 11:30:42;;;;;;;13.60;10.43;;;;;;;10.94;47.38;95455.88;5091327;28;20178;-76
2022/01/16 11:33:09;;;;;;;13.50;11.00;;;;;;;10.94;47.61;95443.06;5089844;28;20200;-76
2022/01/16 11:35:43;;;;;;;14.50;11.67;;;;;;;10.93;47.52;95433.78;5090446;28;20198;-75
2022/01/16 11:38:11;;;;;;;16.13;10.87;;;;;;;10.99;47.82;95437.59;5091157;28;20184;-76
2022/01/16 11:40:45;;;;;;;13.83;10.07;;;;;;;10.99;47.65;95432.47;5091282;28;20198;-75
2022/01/16 11:43:26;;;;;;;18.13;11.73;;;;;;;11.01;47.82;95434.00;5093430;28;20189;-75
2022/01/16 11:46:07;;;;;;;15.63;11.93;;;;;;;11.03;47.92;95423.63;5095878;28;20224;-77
2022/01/16 11:48:51;;;;;;;14.50;11.40;;;;;;;11.03;48.34;95432.09;5093536;28;20182;-75
2022/01/16 11:51:52;;;;;;;15.87;11.37;;;;;;;11.03;47.75;95427.00;5088521;28;20221;-78
2022/01/16 11:54:28;;;;;;;14.47;10.50;;;;;;;10.93;47.63;95417.63;5090659;28;20225;-75
2022/01/16 11:57:04;;;;;;;17.87;11.47;;;;;;;10.99;47.43;95432.47;5102529;28;20196;-77
2022/01/16 11:59:39;;;;;;;15.40;11.67;;;;;;;10.98;47.41;95424.00;5108661;28;20227;-75
2022/01/16 12:02:23;;;;;;;14.50;10.73;;;;;;;10.98;47.19;95428.28;5110297;28;20217;-75
2022/01/16 12:05:11;;;;;;;14.63;10.80;;;;;;;10.97;47.31;95424.13;5110587;28;20297;-76
2022/01/16 12:07:46;;;;;;;13.40;10.70;;;;;;;10.97;47.68;95416.44;5110583;28;20645;-75
2022/01/16 12:10:33;;;;;;;17.87;12.30;;;;;;;10.79;47.55;95387.97;5110441;28;20194;-77
2022/01/16 12:13:00;;;;;;;16.67;11.60;;;;;;;10.97;47.31;95417.25;5110376;28;20197;-77
2022/01/16 12:15:28;;;;;;;15.27;11.40;;;;;;;10.97;47.40;95414.69;5110619;28;20184;-75
2022/01/16 12:17:56;;;;;;;13.03;11.23;;;;;;;10.97;47.20;95413.88;5111001;28;20272;-76
2022/01/16 12:20:26;;;;;;;17.33;12.27;;;;;;;10.98;47.10;95418.06;5110737;28;20197;-77